createdAt,value
2022-12-06T00:00:12.445Z,114.30
2022-12-06T00:01:12.432Z,114.22
2022-12-06T00:02:12.451Z,114.22
2022-12-06T00:03:12.466Z,113.83
2022-12-06T00:04:12.424Z,113.99
2022-12-06T00:05:12.393Z,113.52
2022-12-06T00:06:12.388Z,114.38
2022-12-06T00:07:12.375Z,113.99
2022-12-06T00:08:12.415Z,113.60
2022-12-06T00:09:12.361Z,114.14
2022-12-06T00:10:12.336Z,113.44
2022-12-06T00:11:12.338Z,113.75
2022-12-06T00:12:12.313Z,113.52
2022-12-06T00:13:12.319Z,113.60
2022-12-06T00:14:12.307Z,113.60
2022-12-06T00:15:12.294Z,113.44
2022-12-06T00:16:12.304Z,113.91
2022-12-06T00:17:12.263Z,112.98
2022-12-06T00:18:12.243Z,112.90
2022-12-06T00:19:12.245Z,112.83
2022-12-06T00:20:12.223Z,112.98
2022-12-06T00:21:12.211Z,113.91
2022-12-06T00:22:12.211Z,112.83
2022-12-06T00:23:12.196Z,112.45
2022-12-06T00:24:12.209Z,113.37
2022-12-06T00:25:12.176Z,113.44
2022-12-06T00:26:12.166Z,112.83
2022-12-06T00:27:12.157Z,113.21
2022-12-06T00:28:12.140Z,112.30
2022-12-06T00:29:12.132Z,112.22
2022-12-06T00:30:12.133Z,112.30
2022-12-06T00:31:12.112Z,113.44
2022-12-06T00:32:17.653Z,111.85
2022-12-06T00:33:13.089Z,112.22
2022-12-06T00:34:12.078Z,112.22
2022-12-06T00:35:12.103Z,112.00
2022-12-06T00:36:12.049Z,112.68
2022-12-06T00:37:12.040Z,112.37
2022-12-06T00:38:12.029Z,112.30
2022-12-06T00:39:12.020Z,112.53
2022-12-06T00:40:12.023Z,112.53
2022-12-06T00:41:11.991Z,112.45
2022-12-06T00:42:11.986Z,113.44
2022-12-06T00:43:11.977Z,113.29
2022-12-06T00:44:11.979Z,113.29
2022-12-06T00:45:11.973Z,112.75
2022-12-06T00:46:12.017Z,113.21
2022-12-06T00:47:11.950Z,112.60
2022-12-06T00:48:11.921Z,112.83
2022-12-06T00:49:11.914Z,113.14
2022-12-06T00:50:11.907Z,113.99
2022-12-06T00:51:11.884Z,113.21
2022-12-06T00:52:11.886Z,112.22
2022-12-06T00:53:11.865Z,113.29
2022-12-06T00:54:11.865Z,112.75
2022-12-06T00:55:11.849Z,112.45
2022-12-06T00:56:11.865Z,113.29
2022-12-06T00:57:11.825Z,113.06
2022-12-06T00:58:11.815Z,113.14
2022-12-06T00:59:11.802Z,113.60
2022-12-06T01:00:11.793Z,113.60
2022-12-06T01:01:11.854Z,113.06
2022-12-06T01:02:11.787Z,112.98
2022-12-06T01:03:11.846Z,113.06
2022-12-06T01:04:11.753Z,113.14
2022-12-06T01:05:11.742Z,112.98
2022-12-06T01:06:11.725Z,113.75
2022-12-06T01:07:11.740Z,114.06
2022-12-06T01:08:11.777Z,114.38
2022-12-06T01:09:11.696Z,113.37
2022-12-06T01:10:11.684Z,114.30
2022-12-06T01:11:11.678Z,113.91
2022-12-06T01:12:11.703Z,114.14
2022-12-06T01:13:11.658Z,114.30
2022-12-06T01:14:11.645Z,113.68
2022-12-06T01:15:11.624Z,114.30
2022-12-06T01:16:11.656Z,114.06
2022-12-06T01:17:11.684Z,114.45
2022-12-06T01:18:11.613Z,114.45
2022-12-06T01:19:11.592Z,114.14
2022-12-06T01:20:11.577Z,114.77
2022-12-06T01:21:11.576Z,114.53
2022-12-06T01:22:11.584Z,114.61
2022-12-06T01:23:11.546Z,114.69
2022-12-06T01:24:11.527Z,115.01
2022-12-06T01:25:11.529Z,114.77
2022-12-06T01:26:11.513Z,115.25
2022-12-06T01:27:11.504Z,115.17
2022-12-06T01:28:11.510Z,115.48
2022-12-06T01:29:11.484Z,115.32
2022-12-06T01:30:11.476Z,115.25
2022-12-06T01:31:11.536Z,115.72
2022-12-06T01:32:11.468Z,115.56
2022-12-06T01:33:11.447Z,115.89
2022-12-06T01:34:11.434Z,115.64
2022-12-06T01:35:11.412Z,115.40
2022-12-06T01:36:11.432Z,115.64
2022-12-06T01:37:11.401Z,115.80
2022-12-06T01:38:11.437Z,115.17
2022-12-06T01:39:11.389Z,115.80
2022-12-06T01:40:11.382Z,114.93
2022-12-06T01:41:11.350Z,116.45
2022-12-06T01:42:11.368Z,116.78
2022-12-06T01:43:11.321Z,115.56
2022-12-06T01:44:11.342Z,116.37
2022-12-06T01:45:11.303Z,116.13
2022-12-06T01:46:11.359Z,115.96
2022-12-06T01:47:11.279Z,115.96
2022-12-06T01:48:11.280Z,116.05
2022-12-06T01:49:11.280Z,115.96
2022-12-06T01:50:11.268Z,116.29
2022-12-06T01:51:11.230Z,116.61
2022-12-06T01:52:11.230Z,116.61
2022-12-06T01:53:11.210Z,116.53
2022-12-06T01:54:11.228Z,116.53
2022-12-06T01:55:11.186Z,116.45
2022-12-06T01:56:11.199Z,117.11
2022-12-06T01:57:11.171Z,117.11
2022-12-06T01:58:11.168Z,116.21
2022-12-06T01:59:11.163Z,116.45
2022-12-06T02:00:11.157Z,116.69
2022-12-06T02:01:11.185Z,117.02
2022-12-06T02:02:11.183Z,117.02
2022-12-06T02:03:11.110Z,117.11
2022-12-06T02:04:11.127Z,117.27
2022-12-06T02:05:11.085Z,117.27
2022-12-06T02:06:11.081Z,117.77
2022-12-06T02:07:11.062Z,117.19
2022-12-06T02:08:11.191Z,116.69
2022-12-06T02:09:11.045Z,117.68
2022-12-06T02:10:11.031Z,117.11
2022-12-06T02:11:11.021Z,117.60
2022-12-06T02:12:11.034Z,117.43
2022-12-06T02:13:11.005Z,117.19
2022-12-06T02:14:11.029Z,116.86
2022-12-06T02:15:10.972Z,116.78
2022-12-06T02:16:10.990Z,117.27
2022-12-06T02:17:11.033Z,117.11
2022-12-06T02:18:10.984Z,117.27
2022-12-06T02:19:10.965Z,117.35
2022-12-06T02:20:10.934Z,117.27
2022-12-06T02:21:10.950Z,117.60
2022-12-06T02:22:10.895Z,117.11
2022-12-06T02:23:10.908Z,116.69
2022-12-06T02:24:10.872Z,117.02
2022-12-06T02:25:10.907Z,117.52
2022-12-06T02:26:10.859Z,117.27
2022-12-06T02:27:10.869Z,117.77
2022-12-06T02:28:10.835Z,117.27
2022-12-06T02:29:10.849Z,117.43
2022-12-06T02:30:17.837Z,116.69
2022-12-06T02:31:10.883Z,116.69
2022-12-06T02:32:10.780Z,116.69
2022-12-06T02:33:10.785Z,116.78
2022-12-06T02:34:10.770Z,117.02
2022-12-06T02:35:10.765Z,116.13
2022-12-06T02:36:10.768Z,116.37
2022-12-06T02:37:10.757Z,115.80
2022-12-06T02:38:13.186Z,116.86
2022-12-06T02:39:10.730Z,116.45
2022-12-06T02:40:10.704Z,116.37
2022-12-06T02:41:10.722Z,116.69
2022-12-06T02:42:10.690Z,116.45
2022-12-06T02:43:10.685Z,116.94
2022-12-06T02:44:10.674Z,116.94
2022-12-06T02:45:10.655Z,116.78
2022-12-06T02:46:10.750Z,116.37
2022-12-06T02:47:10.663Z,116.61
2022-12-06T02:48:10.612Z,116.53
2022-12-06T02:49:10.612Z,116.61
2022-12-06T02:50:10.598Z,116.61
2022-12-06T02:51:10.599Z,116.05
2022-12-06T02:52:10.584Z,116.61
2022-12-06T02:53:10.576Z,116.61
2022-12-06T02:54:10.559Z,116.13
2022-12-06T02:55:10.553Z,115.72
2022-12-06T02:56:10.533Z,116.21
2022-12-06T02:57:10.543Z,116.69
2022-12-06T02:58:10.504Z,115.40
2022-12-06T02:59:10.516Z,116.61
2022-12-06T03:00:10.483Z,116.45
2022-12-06T03:01:10.565Z,115.80
2022-12-06T03:02:10.548Z,116.05
2022-12-06T03:03:10.472Z,116.61
2022-12-06T03:04:10.442Z,116.37
2022-12-06T03:05:10.455Z,116.13
2022-12-06T03:06:10.418Z,116.37
2022-12-06T03:07:10.442Z,116.29
2022-12-06T03:08:10.438Z,115.56
2022-12-06T03:09:10.396Z,116.61
2022-12-06T03:10:10.381Z,116.05
2022-12-06T03:11:10.374Z,115.64
2022-12-06T03:12:10.367Z,115.89
2022-12-06T03:13:10.355Z,115.80
2022-12-06T03:14:14.542Z,116.45
2022-12-06T03:15:10.341Z,116.86
2022-12-06T03:16:10.336Z,115.32
2022-12-06T03:17:10.326Z,115.96
2022-12-06T03:18:10.295Z,116.45
2022-12-06T03:19:10.303Z,116.29
2022-12-06T03:20:10.267Z,116.05
2022-12-06T03:21:10.275Z,115.96
2022-12-06T03:22:10.264Z,116.29
2022-12-06T03:23:10.252Z,117.35
2022-12-06T03:24:10.230Z,116.21
2022-12-06T03:25:10.226Z,116.69
2022-12-06T03:26:10.204Z,116.29
2022-12-06T03:27:10.223Z,116.29
2022-12-06T03:28:10.243Z,116.21
2022-12-06T03:29:10.179Z,116.53
2022-12-06T03:30:10.160Z,116.13
2022-12-06T03:31:10.202Z,116.61
2022-12-06T03:32:10.156Z,116.05
2022-12-06T03:33:10.135Z,116.45
2022-12-06T03:34:10.132Z,116.21
2022-12-06T03:35:10.121Z,115.72
2022-12-06T03:36:10.101Z,116.21
2022-12-06T03:37:10.100Z,116.53
2022-12-06T03:38:10.075Z,116.13
2022-12-06T03:39:10.087Z,116.69
2022-12-06T03:40:10.053Z,116.94
2022-12-06T03:41:10.060Z,116.53
2022-12-06T03:42:10.031Z,116.53
2022-12-06T03:43:10.046Z,115.80
2022-12-06T03:44:10.029Z,116.45
2022-12-06T03:45:10.026Z,116.21
2022-12-06T03:46:10.083Z,116.37
2022-12-06T03:47:10.120Z,116.13
2022-12-06T03:48:09.959Z,116.29
2022-12-06T03:49:09.979Z,117.02
2022-12-06T03:50:09.959Z,117.02
2022-12-06T03:51:09.960Z,116.86
2022-12-06T03:52:09.919Z,116.94
2022-12-06T03:53:09.948Z,116.61
2022-12-06T03:54:09.919Z,116.29
2022-12-06T03:55:09.917Z,116.86
2022-12-06T03:56:09.883Z,116.78
2022-12-06T03:57:09.877Z,117.11
2022-12-06T03:58:09.865Z,117.19
2022-12-06T03:59:09.851Z,116.94
2022-12-06T04:00:09.849Z,116.86
2022-12-06T04:01:09.829Z,117.35
2022-12-06T04:02:09.870Z,117.27
2022-12-06T04:03:09.804Z,117.19
2022-12-06T04:04:09.820Z,117.27
2022-12-06T04:05:09.798Z,117.19
2022-12-06T04:06:09.769Z,117.68
2022-12-06T04:07:09.758Z,117.68
2022-12-06T04:08:09.811Z,117.27
2022-12-06T04:09:09.742Z,117.52
2022-12-06T04:10:09.755Z,117.43
2022-12-06T04:11:09.717Z,117.68
2022-12-06T04:12:09.705Z,117.60
2022-12-06T04:13:09.694Z,117.52
2022-12-06T04:14:09.682Z,118.10
2022-12-06T04:15:09.698Z,118.10
2022-12-06T04:16:09.679Z,117.77
2022-12-06T04:17:09.651Z,117.85
2022-12-06T04:18:09.639Z,117.68
2022-12-06T04:19:09.639Z,117.93
2022-12-06T04:20:09.635Z,117.11
2022-12-06T04:21:09.608Z,118.43
2022-12-06T04:22:09.616Z,118.18
2022-12-06T04:23:09.586Z,117.85
2022-12-06T04:24:09.577Z,118.27
2022-12-06T04:25:09.565Z,118.35
2022-12-06T04:26:09.555Z,118.77
2022-12-06T04:27:09.546Z,117.77
2022-12-06T04:28:09.548Z,117.27
2022-12-06T04:29:09.526Z,117.77
2022-12-06T04:30:09.506Z,118.18
2022-12-06T04:31:09.532Z,117.85
2022-12-06T04:32:09.496Z,117.60
2022-12-06T04:33:09.498Z,117.93
2022-12-06T04:34:09.476Z,118.35
2022-12-06T04:35:09.452Z,117.77
2022-12-06T04:36:09.444Z,117.93
2022-12-06T04:37:09.435Z,117.68
2022-12-06T04:38:09.443Z,117.93
2022-12-06T04:39:09.445Z,118.02
2022-12-06T04:40:09.405Z,117.85
2022-12-06T04:41:09.391Z,117.52
2022-12-06T04:42:09.374Z,117.77
2022-12-06T04:43:09.387Z,117.43
2022-12-06T04:44:09.389Z,116.61
2022-12-06T04:45:09.350Z,117.43
2022-12-06T04:46:09.410Z,117.02
2022-12-06T04:47:09.333Z,117.02
2022-12-06T04:48:09.325Z,117.11
2022-12-06T04:49:09.324Z,116.94
2022-12-06T04:50:09.300Z,117.19
2022-12-06T04:51:09.284Z,116.94
2022-12-06T04:52:09.278Z,116.94
2022-12-06T04:53:09.275Z,116.61
2022-12-06T04:54:09.266Z,117.27
2022-12-06T04:55:09.252Z,117.27
2022-12-06T04:56:09.227Z,117.11
2022-12-06T04:57:09.225Z,116.53
2022-12-06T04:58:09.217Z,117.11
2022-12-06T04:59:09.217Z,116.86
2022-12-06T05:00:09.181Z,117.35
2022-12-06T05:01:09.225Z,116.94
2022-12-06T05:02:09.167Z,117.19
2022-12-06T05:03:09.156Z,116.94
2022-12-06T05:04:09.205Z,117.43
2022-12-06T05:05:09.132Z,116.53
2022-12-06T05:06:09.142Z,116.61
2022-12-06T05:07:09.118Z,116.69
2022-12-06T05:08:09.138Z,117.35
2022-12-06T05:09:09.117Z,116.29
2022-12-06T05:10:09.089Z,117.35
2022-12-06T05:11:09.064Z,116.29
2022-12-06T05:12:09.065Z,115.64
2022-12-06T05:13:10.401Z,115.56
2022-12-06T05:14:09.034Z,116.53
2022-12-06T05:15:09.039Z,116.53
2022-12-06T05:16:09.059Z,115.48
2022-12-06T05:17:09.002Z,115.96
2022-12-06T05:18:08.994Z,116.05
2022-12-06T05:19:08.992Z,115.56
2022-12-06T05:20:08.973Z,115.96
2022-12-06T05:21:08.954Z,116.61
2022-12-06T05:22:08.952Z,116.45
2022-12-06T05:23:08.935Z,117.02
2022-12-06T05:24:08.949Z,117.27
2022-12-06T05:25:08.915Z,117.68
2022-12-06T05:26:08.903Z,117.27
2022-12-06T05:27:08.895Z,116.53
2022-12-06T05:28:08.892Z,116.37
2022-12-06T05:29:08.877Z,116.78
2022-12-06T05:30:08.890Z,117.43
2022-12-06T05:31:08.888Z,117.19
2022-12-06T05:32:08.877Z,117.52
2022-12-06T05:33:08.828Z,117.27
2022-12-06T05:34:08.821Z,117.52
2022-12-06T05:35:08.801Z,117.43
2022-12-06T05:36:08.799Z,117.35
2022-12-06T05:37:08.784Z,117.52
2022-12-06T05:38:08.795Z,118.10
2022-12-06T05:39:08.769Z,117.52
2022-12-06T05:40:08.752Z,117.43
2022-12-06T05:41:08.737Z,116.78
2022-12-06T05:42:08.732Z,118.35
2022-12-06T05:43:08.718Z,117.85
2022-12-06T05:44:08.728Z,117.77
2022-12-06T05:45:08.701Z,118.10
2022-12-06T05:46:08.753Z,117.85
2022-12-06T05:47:08.677Z,118.43
2022-12-06T05:48:08.667Z,118.10
2022-12-06T05:49:08.709Z,118.86
2022-12-06T05:50:08.638Z,117.93
2022-12-06T05:51:08.631Z,118.60
2022-12-06T05:52:08.623Z,118.27
2022-12-06T05:53:08.608Z,118.52
2022-12-06T05:54:08.597Z,119.28
2022-12-06T05:55:08.619Z,117.68
2022-12-06T05:56:08.579Z,118.86
2022-12-06T05:57:08.565Z,119.11
2022-12-06T05:58:08.556Z,119.11
2022-12-06T05:59:08.557Z,119.03
2022-12-06T06:00:08.548Z,118.86
2022-12-06T06:01:08.545Z,119.37
2022-12-06T06:02:08.590Z,119.03
2022-12-06T06:03:08.624Z,118.77
2022-12-06T06:04:08.526Z,119.11
2022-12-06T06:05:08.480Z,119.20
2022-12-06T06:06:08.491Z,119.62
2022-12-06T06:07:08.497Z,119.71
2022-12-06T06:08:08.480Z,119.45
2022-12-06T06:09:08.439Z,119.20
2022-12-06T06:10:08.423Z,119.62
2022-12-06T06:11:08.429Z,119.97
2022-12-06T06:12:12.425Z,119.97
2022-12-06T06:13:08.388Z,120.49
2022-12-06T06:14:08.381Z,119.79
2022-12-06T06:15:08.370Z,120.05
2022-12-06T06:16:08.510Z,119.88
2022-12-06T06:17:08.350Z,120.14
2022-12-06T06:18:08.346Z,119.79
2022-12-06T06:19:08.332Z,120.05
2022-12-06T06:20:08.326Z,120.05
2022-12-06T06:21:08.317Z,120.05
2022-12-06T06:22:08.298Z,120.31
2022-12-06T06:23:08.294Z,120.57
2022-12-06T06:24:08.277Z,119.88
2022-12-06T06:25:08.264Z,120.31
2022-12-06T06:26:08.264Z,120.23
2022-12-06T06:27:08.240Z,120.49
2022-12-06T06:28:08.234Z,120.23
2022-12-06T06:29:08.226Z,120.23
2022-12-06T06:30:08.212Z,120.75
2022-12-06T06:31:08.223Z,121.01
2022-12-06T06:32:08.229Z,121.63
2022-12-06T06:33:08.179Z,121.36
2022-12-06T06:34:08.167Z,121.72
2022-12-06T06:35:08.159Z,121.54
2022-12-06T06:36:08.170Z,121.72
2022-12-06T06:37:08.127Z,121.19
2022-12-06T06:38:08.129Z,120.92
2022-12-06T06:39:08.106Z,120.31
2022-12-06T06:40:08.099Z,121.36
2022-12-06T06:41:08.113Z,122.16
2022-12-06T06:42:08.079Z,122.07
2022-12-06T06:43:08.115Z,121.45
2022-12-06T06:44:08.069Z,121.63
2022-12-06T06:45:08.046Z,122.70
2022-12-06T06:46:08.087Z,122.25
2022-12-06T06:47:08.026Z,122.25
2022-12-06T06:48:08.019Z,122.79
2022-12-06T06:49:08.009Z,122.52
2022-12-06T06:50:07.994Z,122.79
2022-12-06T06:51:08.006Z,122.79
2022-12-06T06:52:07.979Z,121.81
2022-12-06T06:53:07.959Z,121.01
2022-12-06T06:54:07.957Z,121.72
2022-12-06T06:55:07.934Z,121.81
2022-12-06T06:56:07.962Z,121.28
2022-12-06T06:57:11.533Z,120.92
2022-12-06T06:58:08.910Z,121.63
2022-12-06T06:59:07.902Z,121.01
2022-12-06T07:00:07.884Z,122.16
2022-12-06T07:01:07.980Z,122.25
2022-12-06T07:02:07.914Z,122.25
2022-12-06T07:03:07.852Z,122.34
2022-12-06T07:04:07.850Z,122.70
2022-12-06T07:05:07.832Z,122.79
2022-12-06T07:06:07.821Z,122.97
2022-12-06T07:07:07.823Z,123.06
2022-12-06T07:08:07.827Z,122.70
2022-12-06T07:09:07.781Z,123.25
2022-12-06T07:10:07.780Z,122.97
2022-12-06T07:11:07.773Z,122.88
2022-12-06T07:12:07.772Z,122.79
2022-12-06T07:13:07.747Z,123.52
2022-12-06T07:14:07.734Z,123.15
2022-12-06T07:15:07.721Z,123.70
2022-12-06T07:16:07.713Z,123.61
2022-12-06T07:17:07.860Z,123.61
2022-12-06T07:18:07.700Z,123.34
2022-12-06T07:19:09.178Z,123.61
2022-12-06T07:20:07.669Z,124.25
2022-12-06T07:21:07.659Z,123.61
2022-12-06T07:22:07.644Z,123.98
2022-12-06T07:23:07.659Z,124.53
2022-12-06T07:24:07.629Z,123.61
2022-12-06T07:25:07.621Z,124.81
2022-12-06T07:26:07.612Z,124.53
2022-12-06T07:27:07.596Z,124.72
2022-12-06T07:28:07.584Z,124.81
2022-12-06T07:29:07.590Z,124.81
2022-12-06T07:30:07.560Z,124.44
2022-12-06T07:31:07.620Z,124.72
2022-12-06T07:32:07.538Z,124.81
2022-12-06T07:33:07.530Z,125.00
2022-12-06T07:34:07.539Z,124.44
2022-12-06T07:35:07.507Z,124.25
2022-12-06T07:36:12.436Z,124.81
2022-12-06T07:37:08.489Z,124.91
2022-12-06T07:38:07.475Z,123.89
2022-12-06T07:39:13.021Z,124.63
2022-12-06T07:40:08.480Z,125.00
2022-12-06T07:41:07.440Z,125.19
2022-12-06T07:42:07.447Z,124.91
2022-12-06T07:43:07.422Z,124.72
2022-12-06T07:44:07.430Z,125.09
2022-12-06T07:45:07.420Z,123.52
2022-12-06T07:46:07.414Z,125.19
2022-12-06T07:47:07.378Z,125.09
2022-12-06T07:48:07.370Z,124.63
2022-12-06T07:49:07.359Z,123.89
2022-12-06T07:50:09.483Z,123.89
2022-12-06T07:51:07.336Z,124.35
2022-12-06T07:52:07.339Z,124.63
2022-12-06T07:53:07.311Z,124.16
2022-12-06T07:54:07.305Z,124.44
2022-12-06T07:55:07.309Z,123.89
2022-12-06T07:56:07.276Z,124.16
2022-12-06T07:57:07.265Z,124.63
2022-12-06T07:58:07.255Z,124.35
2022-12-06T07:59:07.250Z,124.63
2022-12-06T08:00:07.255Z,124.44
2022-12-06T08:01:07.293Z,124.53
2022-12-06T08:02:07.206Z,123.43
2022-12-06T08:03:07.210Z,123.89
2022-12-06T08:04:07.261Z,123.61
2022-12-06T08:05:07.184Z,124.07
2022-12-06T08:06:07.185Z,123.89
2022-12-06T08:07:07.159Z,123.70
2022-12-06T08:08:07.196Z,123.98
2022-12-06T08:09:07.150Z,124.07
2022-12-06T08:10:07.130Z,123.70
2022-12-06T08:11:07.134Z,122.70
2022-12-06T08:12:07.103Z,123.25
2022-12-06T08:13:07.093Z,123.34
2022-12-06T08:14:07.086Z,123.61
2022-12-06T08:15:07.074Z,123.98
2022-12-06T08:16:07.155Z,124.72
2022-12-06T08:17:07.049Z,123.52
2022-12-06T08:18:07.048Z,123.79
2022-12-06T08:19:07.033Z,123.34
2022-12-06T08:20:07.023Z,123.61
2022-12-06T08:21:07.028Z,123.70
2022-12-06T08:22:06.996Z,123.52
2022-12-06T08:23:06.982Z,122.97
2022-12-06T08:24:06.981Z,123.25
2022-12-06T08:25:06.975Z,123.43
2022-12-06T08:26:06.972Z,122.97
2022-12-06T08:27:06.972Z,122.52
2022-12-06T08:28:06.937Z,123.25
2022-12-06T08:29:06.922Z,122.88
2022-12-06T08:30:06.926Z,123.34
2022-12-06T08:31:06.963Z,122.97
2022-12-06T08:32:06.892Z,122.43
2022-12-06T08:33:06.882Z,122.97
2022-12-06T08:34:06.871Z,123.52
2022-12-06T08:35:06.856Z,123.06
2022-12-06T08:36:06.861Z,123.15
2022-12-06T08:37:06.842Z,122.70
2022-12-06T08:38:06.823Z,122.97
2022-12-06T08:39:06.812Z,123.34
2022-12-06T08:40:06.809Z,122.25
2022-12-06T08:41:06.810Z,123.52
2022-12-06T08:42:06.785Z,122.97
2022-12-06T08:43:06.784Z,123.15
2022-12-06T08:44:06.759Z,122.70
2022-12-06T08:45:06.748Z,123.15
2022-12-06T08:46:06.804Z,122.70
2022-12-06T08:47:06.724Z,123.15
2022-12-06T08:48:06.713Z,123.15
2022-12-06T08:49:06.705Z,123.34
2022-12-06T08:50:06.690Z,123.61
2022-12-06T08:51:06.685Z,123.52
2022-12-06T08:52:06.692Z,123.52
2022-12-06T08:53:06.659Z,122.70
2022-12-06T08:54:06.651Z,123.70
2022-12-06T08:55:06.648Z,123.43
2022-12-06T08:56:06.641Z,123.52
2022-12-06T08:57:06.614Z,123.61
2022-12-06T08:58:06.614Z,124.16
2022-12-06T08:59:06.595Z,123.52
2022-12-06T09:00:06.589Z,123.52
2022-12-06T09:01:06.612Z,123.79
2022-12-06T09:02:06.603Z,123.61
2022-12-06T09:03:06.561Z,123.89
2022-12-06T09:04:06.659Z,123.52
2022-12-06T09:05:06.650Z,123.43
2022-12-06T09:06:06.524Z,124.35
2022-12-06T09:07:11.501Z,123.25
2022-12-06T09:08:07.540Z,123.43
2022-12-06T09:09:06.496Z,123.89
2022-12-06T09:10:06.473Z,123.98
2022-12-06T09:11:06.486Z,123.25
2022-12-06T09:12:06.460Z,123.43
2022-12-06T09:13:06.449Z,122.70
2022-12-06T09:14:06.433Z,123.15
2022-12-06T09:15:06.441Z,123.34
2022-12-06T09:16:06.496Z,124.44
2022-12-06T09:17:06.401Z,123.70
2022-12-06T09:18:06.392Z,124.25
2022-12-06T09:19:06.380Z,124.07
2022-12-06T09:20:06.720Z,124.16
2022-12-06T09:21:06.377Z,124.07
2022-12-06T09:22:06.354Z,124.44
2022-12-06T09:23:06.339Z,124.81
2022-12-06T09:24:06.331Z,123.98
2022-12-06T09:25:06.307Z,124.35
2022-12-06T09:26:06.321Z,123.79
2022-12-06T09:27:06.312Z,124.07
2022-12-06T09:28:06.289Z,123.98
2022-12-06T09:29:06.267Z,124.44
2022-12-06T09:30:06.267Z,124.25
2022-12-06T09:31:06.314Z,124.63
2022-12-06T09:32:06.239Z,124.16
2022-12-06T09:33:06.226Z,124.91
2022-12-06T09:34:06.221Z,125.19
2022-12-06T09:35:10.922Z,125.56
2022-12-06T09:36:07.215Z,125.19
2022-12-06T09:37:06.197Z,126.32
2022-12-06T09:38:06.178Z,126.42
2022-12-06T09:39:06.165Z,126.32
2022-12-06T09:40:06.165Z,125.19
2022-12-06T09:41:06.144Z,125.47
2022-12-06T09:42:06.171Z,124.44
2022-12-06T09:43:06.131Z,123.25
2022-12-06T09:44:06.113Z,122.43
2022-12-06T09:45:06.109Z,121.36
2022-12-06T09:46:06.186Z,121.28
2022-12-06T09:47:06.159Z,120.57
2022-12-06T09:48:06.063Z,121.36
2022-12-06T09:49:06.055Z,120.14
2022-12-06T09:50:06.044Z,120.57
2022-12-06T09:51:06.040Z,120.23
2022-12-06T09:52:06.031Z,121.01
2022-12-06T09:53:06.024Z,120.84
2022-12-06T09:54:05.998Z,121.54
2022-12-06T09:55:05.999Z,121.28
2022-12-06T09:56:05.984Z,122.34
2022-12-06T09:57:05.967Z,121.63
2022-12-06T09:58:05.984Z,122.07
2022-12-06T09:59:05.947Z,122.25
2022-12-06T10:00:10.883Z,122.52
2022-12-06T10:01:06.940Z,122.25
2022-12-06T10:02:06.031Z,123.06
2022-12-06T10:03:05.976Z,123.52
2022-12-06T10:04:05.891Z,123.34
2022-12-06T10:05:05.892Z,123.52
2022-12-06T10:06:05.872Z,123.79
2022-12-06T10:07:05.866Z,124.07
2022-12-06T10:08:06.062Z,123.89
2022-12-06T10:09:05.909Z,125.47
2022-12-06T10:10:05.825Z,125.09
2022-12-06T10:11:08.692Z,125.28
2022-12-06T10:12:05.827Z,125.66
2022-12-06T10:13:05.813Z,125.75
2022-12-06T10:14:05.797Z,126.52
2022-12-06T10:15:05.771Z,126.23
2022-12-06T10:16:05.777Z,126.90
2022-12-06T10:17:08.711Z,126.71
2022-12-06T10:18:05.754Z,126.61
2022-12-06T10:19:05.761Z,127.78
2022-12-06T10:20:05.718Z,127.48
2022-12-06T10:21:05.710Z,127.68
2022-12-06T10:22:05.722Z,126.90
2022-12-06T10:23:05.690Z,127.29
2022-12-06T10:24:05.678Z,126.90
2022-12-06T10:25:05.678Z,126.52
2022-12-06T10:26:05.655Z,126.32
2022-12-06T10:27:05.648Z,127.00
2022-12-06T10:28:05.631Z,126.42
2022-12-06T10:29:05.633Z,126.90
2022-12-06T10:30:05.621Z,126.23
2022-12-06T10:31:05.688Z,126.52
2022-12-06T10:32:05.598Z,127.00
2022-12-06T10:33:05.633Z,126.71
2022-12-06T10:34:05.568Z,126.71
2022-12-06T10:35:05.984Z,127.68
2022-12-06T10:36:05.557Z,126.52
2022-12-06T10:37:05.605Z,127.19
2022-12-06T10:38:05.557Z,126.71
2022-12-06T10:39:05.531Z,125.94
2022-12-06T10:40:05.812Z,125.94
2022-12-06T10:41:05.495Z,125.56
2022-12-06T10:42:05.484Z,124.72
2022-12-06T10:43:05.476Z,124.53
2022-12-06T10:44:05.469Z,122.97
2022-12-06T10:45:05.456Z,123.06
2022-12-06T10:46:08.975Z,122.88
2022-12-06T10:47:05.761Z,122.25
2022-12-06T10:48:05.424Z,123.43
2022-12-06T10:49:05.428Z,121.98
2022-12-06T10:50:05.398Z,121.63
2022-12-06T10:51:05.455Z,119.88
2022-12-06T10:52:05.373Z,119.28
2022-12-06T10:53:05.363Z,119.45
2022-12-06T10:54:05.351Z,119.71
2022-12-06T10:55:05.369Z,119.28
2022-12-06T10:56:05.330Z,119.71
2022-12-06T10:57:05.340Z,119.28
2022-12-06T10:58:05.307Z,119.71
2022-12-06T10:59:05.298Z,119.97
2022-12-06T11:00:08.074Z,120.14
2022-12-06T11:01:06.409Z,120.57
2022-12-06T11:02:05.336Z,120.66
2022-12-06T11:03:05.254Z,121.54
2022-12-06T11:04:05.245Z,121.54
2022-12-06T11:05:05.231Z,121.36
2022-12-06T11:06:05.254Z,121.72
2022-12-06T11:07:05.219Z,122.34
2022-12-06T11:08:05.313Z,122.61
2022-12-06T11:09:05.190Z,121.98
2022-12-06T11:10:05.181Z,122.16
2022-12-06T11:11:05.166Z,121.72
2022-12-06T11:12:05.170Z,121.36
2022-12-06T11:13:05.161Z,121.54
2022-12-06T11:14:05.137Z,122.97
2022-12-06T11:15:05.125Z,122.70
2022-12-06T11:16:05.203Z,123.06
2022-12-06T11:17:05.122Z,123.43
2022-12-06T11:18:05.104Z,123.43
2022-12-06T11:19:05.081Z,123.15
2022-12-06T11:20:05.077Z,122.07
2022-12-06T11:21:05.091Z,121.81
2022-12-06T11:22:05.071Z,120.66
2022-12-06T11:23:05.037Z,119.62
2022-12-06T11:24:05.035Z,120.14
2022-12-06T11:25:05.028Z,121.01
2022-12-06T11:26:05.010Z,121.45
2022-12-06T11:27:05.015Z,121.63
2022-12-06T11:28:04.984Z,122.34
2022-12-06T11:29:04.977Z,122.61
2022-12-06T11:30:04.978Z,123.70
2022-12-06T11:31:04.991Z,123.98
2022-12-06T11:32:04.992Z,124.25
2022-12-06T11:33:04.942Z,124.44
2022-12-06T11:34:04.918Z,125.47
2022-12-06T11:35:04.908Z,125.75
2022-12-06T11:36:04.898Z,125.56
2022-12-06T11:37:04.913Z,126.13
2022-12-06T11:38:04.876Z,125.38
2022-12-06T11:39:04.862Z,125.85
2022-12-06T11:40:04.853Z,125.66
2022-12-06T11:41:04.842Z,126.04
2022-12-06T11:42:04.854Z,125.75
2022-12-06T11:43:04.822Z,126.61
2022-12-06T11:44:04.806Z,125.94
2022-12-06T11:45:05.159Z,127.00
2022-12-06T11:46:04.787Z,126.52
2022-12-06T11:47:04.837Z,126.90
2022-12-06T11:48:04.765Z,126.80
2022-12-06T11:49:04.758Z,126.42
2022-12-06T11:50:10.092Z,126.52
2022-12-06T11:51:05.731Z,126.32
2022-12-06T11:52:04.761Z,126.90
2022-12-06T11:53:04.743Z,127.29
2022-12-06T11:54:04.703Z,126.04
2022-12-06T11:55:04.688Z,126.04
2022-12-06T11:56:04.680Z,126.61
2022-12-06T11:57:04.671Z,126.71
2022-12-06T11:58:04.666Z,126.23
2022-12-06T11:59:04.670Z,126.61
2022-12-06T12:00:04.638Z,126.61
2022-12-06T12:01:04.632Z,126.52
2022-12-06T12:02:04.657Z,125.94
2022-12-06T12:03:04.702Z,126.23
2022-12-06T12:04:04.618Z,125.56
2022-12-06T12:05:04.601Z,125.94
2022-12-06T12:06:04.573Z,125.85
2022-12-06T12:07:04.587Z,126.52
2022-12-06T12:08:04.600Z,125.56
2022-12-06T12:09:04.554Z,126.42
2022-12-06T12:10:04.530Z,125.09
2022-12-06T12:11:04.519Z,125.85
2022-12-06T12:12:04.509Z,125.00
2022-12-06T12:13:04.498Z,125.75
2022-12-06T12:14:04.535Z,125.66
2022-12-06T12:15:04.615Z,125.28
2022-12-06T12:16:04.646Z,125.19
2022-12-06T12:17:04.787Z,125.66
2022-12-06T12:18:04.494Z,126.13
2022-12-06T12:19:04.458Z,126.13
2022-12-06T12:20:04.434Z,126.04
2022-12-06T12:21:04.406Z,126.80
2022-12-06T12:22:04.400Z,126.13
2022-12-06T12:23:04.393Z,126.04
2022-12-06T12:24:04.395Z,126.42
2022-12-06T12:25:18.897Z,126.61
2022-12-06T12:26:05.358Z,126.61
2022-12-06T12:27:04.352Z,127.19
2022-12-06T12:28:04.337Z,126.04